Time;durP1;ratioP1;P1;durP2;ratioP2;P2;SDS_P1;SDS_P2;PMS_P1;PMS_P2;Temp;Humidity;BMP_temperature;BMP_pressure;BME280_temperature;BME280_humidity;BME280_pressure;Samples;Min_cycle;Max_cycle;Signal;HPM_P1;HPM_P2
2023/06/02 00:01:49;;;;;;;10.15;3.45;;;15.60;60.20;;;;;;4740350;30;20048;-90
2023/06/02 00:04:17;;;;;;;12.70;4.07;;;15.50;60.50;;;;;;4754649;30;20056;-91
2023/06/02 00:06:45;;;;;;;9.88;3.78;;;15.50;60.70;;;;;;4739822;30;20059;-90
2023/06/02 00:09:14;;;;;;;7.88;3.78;;;15.50;60.10;;;;;;4739911;30;20056;-92
2023/06/02 00:11:41;;;;;;;9.65;3.60;;;15.60;60.60;;;;;;4754531;30;20052;-91
2023/06/02 00:14:08;;;;;;;8.27;3.80;;;15.50;60.40;;;;;;4754505;30;20048;-91
2023/06/02 00:16:44;;;;;;;9.53;4.00;;;15.40;60.60;;;;;;4753876;30;20066;-90
2023/06/02 00:19:13;;;;;;;8.57;3.55;;;15.30;61.10;;;;;;4739356;30;20052;-91
2023/06/02 00:21:41;;;;;;;9.10;3.88;;;15.30;61.00;;;;;;4739968;30;20045;-90
2023/06/02 00:24:09;;;;;;;8.15;3.80;;;15.40;61.10;;;;;;4739145;30;20048;-91
2023/06/02 00:26:36;;;;;;;8.23;3.80;;;15.40;60.70;;;;;;4753700;30;20060;-91
2023/06/02 00:29:03;;;;;;;9.13;3.57;;;15.50;60.70;;;;;;4754396;30;20056;-91
2023/06/02 00:31:30;;;;;;;10.82;3.92;;;15.40;61.10;;;;;;4753602;30;20055;-90
2023/06/02 00:33:58;;;;;;;10.13;3.65;;;15.20;61.40;;;;;;4739565;30;20419;-90
2023/06/02 00:36:25;;;;;;;7.72;3.58;;;15.20;61.40;;;;;;4739024;30;20071;-90
2023/06/02 00:38:52;;;;;;;9.68;4.18;;;15.20;61.60;;;;;;4753890;30;20385;-90
2023/06/02 00:41:20;;;;;;;8.20;3.40;;;15.20;62.10;;;;;;4739029;30;20076;-90
2023/06/02 00:43:47;;;;;;;8.10;3.53;;;15.10;62.00;;;;;;4753260;30;20044;-91
2023/06/02 00:46:15;;;;;;;11.07;4.30;;;15.00;62.50;;;;;;4739448;30;20060;-90
2023/06/02 00:48:44;;;;;;;9.68;3.60;;;15.00;62.60;;;;;;4738934;30;20063;-90
2023/06/02 00:51:11;;;;;;;8.13;3.25;;;15.00;63.10;;;;;;4738924;30;20052;-90
2023/06/02 00:53:39;;;;;;;8.73;3.47;;;14.90;63.20;;;;;;4738744;30;20114;-91
2023/06/02 00:56:12;;;;;;;7.88;3.50;;;15.00;63.00;;;;;;4738403;30;20056;-91
2023/06/02 00:58:43;;;;;;;8.02;3.35;;;15.00;62.60;;;;;;4724576;30;20044;-91
2023/06/02 01:01:18;;;;;;;8.82;4.13;;;15.00;62.90;;;;;;4739225;30;20044;-91
2023/06/02 01:03:49;;;;;;;9.05;3.50;;;14.90;63.00;;;;;;4739715;30;20529;-91
2023/06/02 01:06:23;;;;;;;9.10;3.30;;;15.00;62.70;;;;;;4739569;30;20056;-90
2023/06/02 01:08:51;;;;;;;8.52;3.35;;;14.80;63.20;;;;;;4739154;30;20052;-90
2023/06/02 01:11:19;;;;;;;8.77;3.63;;;14.80;63.00;;;;;;4753731;30;20466;-91
2023/06/02 01:13:48;;;;;;;9.60;3.40;;;14.70;63.90;;;;;;4739112;30;20071;-90
2023/06/02 01:16:16;;;;;;;7.70;3.22;;;14.60;63.60;;;;;;4724457;30;20060;-91
2023/06/02 01:18:46;;;;;;;9.73;3.67;;;14.80;63.50;;;;;;4738860;30;20065;-90
2023/06/02 01:21:21;;;;;;;6.80;3.38;;;14.80;63.60;;;;;;4739193;30;20062;-90
2023/06/02 01:23:57;;;;;;;8.40;3.50;;;14.80;63.50;;;;;;4724451;30;20052;-90
2023/06/02 01:26:25;;;;;;;7.63;3.20;;;14.70;63.20;;;;;;4738974;30;20056;-90
2023/06/02 01:28:52;;;;;;;8.93;3.50;;;14.80;64.00;;;;;;4753091;30;20055;-91
2023/06/02 01:31:34;;;;;;;9.83;3.40;;;14.80;63.70;;;;;;4753525;30;20401;-91
2023/06/02 01:34:19;;;;;;;9.60;3.15;;;14.80;63.80;;;;;;4738956;30;20135;-91
2023/06/02 01:36:50;;;;;;;8.13;3.65;;;14.80;64.10;;;;;;4738641;30;20395;-90
2023/06/02 01:39:19;;;;;;;7.38;3.63;;;14.70;63.80;;;;;;4738878;30;20105;-91
2023/06/02 01:41:48;;;;;;;8.75;3.35;;;14.60;64.00;;;;;;4738730;30;20150;-90
2023/06/02 01:44:18;;;;;;;10.43;3.50;;;14.50;64.50;;;;;;4738451;30;20105;-90
2023/06/02 01:46:45;;;;;;;8.63;2.95;;;14.50;64.50;;;;;;4738431;30;20073;-90
2023/06/02 01:49:15;;;;;;;6.85;3.50;;;14.60;64.50;;;;;;4738409;30;20060;-90
2023/06/02 01:51:43;;;;;;;9.43;4.18;;;14.60;64.30;;;;;;4738501;30;20139;-91
2023/06/02 01:54:10;;;;;;;9.18;3.25;;;14.50;64.30;;;;;;4738729;30;20084;-90
2023/06/02 01:56:37;;;;;;;8.50;3.50;;;14.50;64.20;;;;;;4738263;30;20063;-90
2023/06/02 01:59:08;;;;;;;9.15;3.42;;;14.60;64.30;;;;;;4752531;30;20048;-90
2023/06/02 02:01:36;;;;;;;8.38;3.72;;;14.60;64.50;;;;;;4738394;30;20075;-90
2023/06/02 02:04:03;;;;;;;8.68;3.15;;;14.60;64.60;;;;;;4753613;30;20381;-89
2023/06/02 02:06:31;;;;;;;8.32;3.70;;;14.50;64.80;;;;;;4753206;30;20060;-90
2023/06/02 02:09:01;;;;;;;9.87;3.23;;;14.50;65.20;;;;;;4755906;30;20060;-90
2023/06/02 02:11:28;;;;;;;10.68;4.22;;;14.50;65.10;;;;;;4741935;30;20148;-89
2023/06/02 02:13:55;;;;;;;8.38;3.03;;;14.40;65.30;;;;;;4756667;30;20384;-89
2023/06/02 02:16:22;;;;;;;9.38;3.97;;;14.30;65.40;;;;;;4756285;30;20152;-89
2023/06/02 02:18:52;;;;;;;8.13;3.08;;;14.30;66.00;;;;;;4741571;30;20095;-90
2023/06/02 02:21:20;;;;;;;9.67;3.17;;;14.30;65.70;;;;;;4756456;30;20143;-89
2023/06/02 02:23:47;;;;;;;8.82;3.25;;;14.30;65.30;;;;;;4741943;30;20056;-89
2023/06/02 02:26:16;;;;;;;8.75;3.20;;;14.40;65.80;;;;;;4741859;30;20052;-88
2023/06/02 02:28:43;;;;;;;8.02;4.00;;;14.40;65.70;;;;;;4741506;30;20058;-89
2023/06/02 02:31:11;;;;;;;9.88;3.72;;;14.30;65.90;;;;;;4756269;30;20103;-89
2023/06/02 02:33:38;;;;;;;8.20;3.50;;;14.10;66.50;;;;;;4741289;30;20053;-89
2023/06/02 02:36:06;;;;;;;10.43;3.67;;;14.10;66.50;;;;;;4741122;30;20048;-89
2023/06/02 02:38:35;;;;;;;9.02;4.05;;;14.00;66.50;;;;;;4756002;30;20059;-89
2023/06/02 02:41:02;;;;;;;8.98;3.17;;;13.90;67.00;;;;;;4756138;30;20097;-90
2023/06/02 02:43:29;;;;;;;8.10;3.53;;;13.90;67.00;;;;;;4741380;30;20080;-90
2023/06/02 02:45:56;;;;;;;8.47;3.10;;;13.90;67.30;;;;;;4741354;30;20397;-89
2023/06/02 02:48:23;;;;;;;10.00;4.20;;;13.80;67.50;;;;;;4755959;30;20135;-90
2023/06/02 02:50:51;;;;;;;13.68;4.65;;;13.90;67.30;;;;;;4755944;30;20064;-87
2023/06/02 02:53:18;;;;;;;9.15;4.03;;;13.90;67.40;;;;;;4741079;30;20048;-88
2023/06/02 02:55:45;;;;;;;11.30;4.55;;;13.90;67.70;;;;;;4755691;30;20537;-89
2023/06/02 02:58:18;;;;;;;12.53;5.00;;;13.90;67.80;;;;;;4755712;30;20055;-91
2023/06/02 03:00:46;;;;;;;12.15;4.40;;;13.90;67.90;;;;;;4741147;30;20060;-90
2023/06/02 03:03:14;;;;;;;11.10;4.43;;;13.90;68.00;;;;;;4740977;30;20076;-89
2023/06/02 03:05:41;;;;;;;9.52;4.22;;;13.90;68.10;;;;;;4755502;30;20063;-89
2023/06/02 03:08:09;;;;;;;10.95;4.07;;;13.90;68.20;;;;;;4741312;30;20055;-90
2023/06/02 03:10:36;;;;;;;11.73;4.10;;;13.80;68.40;;;;;;4741154;30;20060;-90
2023/06/02 03:13:05;;;;;;;12.55;4.00;;;13.80;68.40;;;;;;4741176;30;20171;-90
2023/06/02 03:15:33;;;;;;;11.23;4.70;;;13.70;69.00;;;;;;4741221;30;20052;-90
2023/06/02 03:18:03;;;;;;;12.52;4.95;;;13.80;68.80;;;;;;4740910;30;20058;-90
2023/06/02 03:20:31;;;;;;;13.00;4.60;;;13.80;69.40;;;;;;4740584;30;20526;-89
2023/06/02 03:23:00;;;;;;;12.40;4.70;;;13.90;69.30;;;;;;4726656;30;20058;-89
2023/06/02 03:25:27;;;;;;;10.02;4.13;;;13.80;69.30;;;;;;4740516;30;20048;-89
2023/06/02 03:27:55;;;;;;;11.48;4.47;;;13.80;69.30;;;;;;4741052;30;20059;-90
2023/06/02 03:30:23;;;;;;;11.00;4.53;;;13.80;69.20;;;;;;4740709;30;20052;-89
2023/06/02 03:32:55;;;;;;;11.18;4.40;;;13.80;69.30;;;;;;4741690;30;20060;-89
2023/06/02 03:35:23;;;;;;;9.67;4.10;;;13.70;69.70;;;;;;4740663;30;20076;-88
2023/06/02 03:37:50;;;;;;;10.75;4.25;;;13.60;69.70;;;;;;4740530;30;20105;-89
2023/06/02 03:40:18;;;;;;;10.57;4.38;;;13.50;70.20;;;;;;4740388;30;20056;-85
2023/06/02 03:42:45;;;;;;;8.55;3.90;;;13.50;70.40;;;;;;4728164;30;20075;-86
2023/06/02 03:45:12;;;;;;;9.57;4.53;;;13.50;70.80;;;;;;4750362;30;20102;-85
2023/06/02 03:47:41;;;;;;;11.97;5.30;;;13.50;71.10;;;;;;4739358;30;20475;-86
2023/06/02 03:50:11;;;;;;;15.00;5.50;;;13.60;71.10;;;;;;4753754;30;20063;-86
2023/06/02 03:52:39;;;;;;;11.57;5.22;;;13.80;70.90;;;;;;4754188;30;20575;-85
2023/06/02 03:55:07;;;;;;;10.18;4.45;;;13.80;70.90;;;;;;4739271;30;20060;-85
2023/06/02 03:57:35;;;;;;;15.15;4.90;;;13.90;70.80;;;;;;4753844;30;20048;-85
2023/06/02 04:00:10;;;;;;;14.53;5.63;;;14.00;71.00;;;;;;4738827;30;20576;-85
2023/06/02 04:02:40;;;;;;;13.70;5.10;;;14.00;71.00;;;;;;4739882;30;20056;-85
2023/06/02 04:05:11;;;;;;;15.10;5.07;;;14.00;70.80;;;;;;4737887;30;20403;-85
2023/06/02 04:07:40;;;;;;;10.82;4.78;;;14.10;70.50;;;;;;4738993;30;20126;-85
2023/06/02 04:10:07;;;;;;;15.18;5.28;;;14.10;70.60;;;;;;4737448;30;20082;-85
2023/06/02 04:12:35;;;;;;;11.70;5.37;;;14.20;70.70;;;;;;4738886;30;20117;-84
2023/06/02 04:15:03;;;;;;;11.88;5.10;;;14.20;70.90;;;;;;4734713;30;20110;-84
2023/06/02 04:17:31;;;;;;;14.48;6.10;;;14.30;71.30;;;;;;4739254;30;20143;-86
2023/06/02 04:19:58;;;;;;;19.20;6.35;;;14.50;71.40;;;;;;4749458;30;20049;-85
2023/06/02 04:22:25;;;;;;;14.68;6.60;;;14.70;70.30;;;;;;4738836;30;20442;-85
2023/06/02 04:24:52;;;;;;;15.30;6.33;;;14.80;69.80;;;;;;4753100;30;20074;-84
2023/06/02 04:27:20;;;;;;;13.20;6.15;;;15.00;70.60;;;;;;4738047;30;20507;-84
2023/06/02 04:29:47;;;;;;;13.75;6.40;;;15.10;70.60;;;;;;4722505;30;20424;-84
2023/06/02 04:32:14;;;;;;;15.27;6.45;;;15.20;70.00;;;;;;4737754;30;20047;-85
2023/06/02 04:34:42;;;;;;;17.65;6.20;;;15.40;69.80;;;;;;4739173;30;20063;-84
2023/06/02 04:37:10;;;;;;;14.27;6.00;;;15.50;69.90;;;;;;4739814;30;20055;-84
2023/06/02 04:39:38;;;;;;;13.55;6.20;;;15.50;69.60;;;;;;4739559;30;20052;-87
2023/06/02 04:42:07;;;;;;;14.88;6.60;;;15.60;69.40;;;;;;4739829;30;20056;-88
2023/06/02 04:44:35;;;;;;;17.02;6.75;;;15.80;69.80;;;;;;4739327;30;20044;-88
2023/06/02 04:47:03;;;;;;;14.43;6.45;;;16.00;69.00;;;;;;4739725;30;20048;-87
2023/06/02 04:49:30;;;;;;;17.20;7.23;;;16.10;68.60;;;;;;4738854;30;20060;-85
2023/06/02 04:51:58;;;;;;;15.18;7.15;;;16.30;67.40;;;;;;4738689;30;20052;-85
2023/06/02 04:54:25;;;;;;;15.93;7.28;;;16.60;67.30;;;;;;4738375;30;20056;-85
2023/06/02 04:56:55;;;;;;;16.30;7.50;;;16.70;65.90;;;;;;4738966;30;20060;-86
2023/06/02 04:59:23;;;;;;;13.57;8.05;;;16.90;66.00;;;;;;4739224;30;20131;-88
2023/06/02 05:01:51;;;;;;;19.27;6.70;;;17.00;65.20;;;;;;4739058;30;20044;-90
2023/06/02 05:04:19;;;;;;;17.35;7.78;;;17.20;64.90;;;;;;4739350;30;20055;-88
2023/06/02 05:06:47;;;;;;;22.90;8.27;;;17.30;64.20;;;;;;4738653;30;20420;-89
2023/06/02 05:09:15;;;;;;;14.10;6.82;;;17.30;64.60;;;;;;4752905;30;20048;-87
2023/06/02 05:11:43;;;;;;;15.45;7.90;;;17.30;63.10;;;;;;4753550;30;20059;-89
2023/06/02 05:14:10;;;;;;;17.03;7.40;;;17.30;63.20;;;;;;4739123;30;20569;-90
2023/06/02 05:16:44;;;;;;;14.27;7.38;;;17.30;62.50;;;;;;4739328;30;20060;-89
2023/06/02 05:19:12;;;;;;;15.35;8.40;;;17.50;63.50;;;;;;4738619;30;20527;-88
2023/06/02 05:21:40;;;;;;;16.33;8.43;;;17.60;63.50;;;;;;4752116;30;20055;-86
2023/06/02 05:24:07;;;;;;;16.42;6.85;;;17.80;62.60;;;;;;4751445;30;20048;-86
2023/06/02 05:26:34;;;;;;;14.30;6.40;;;17.90;62.00;;;;;;4737472;30;20050;-86
2023/06/02 05:29:01;;;;;;;14.98;6.43;;;17.90;61.70;;;;;;4732257;30;20079;-87
2023/06/02 05:31:31;;;;;;;14.32;7.30;;;18.00;61.90;;;;;;4737687;30;20048;-86
2023/06/02 05:33:59;;;;;;;22.00;7.75;;;18.00;61.50;;;;;;4751956;30;20060;-86
2023/06/02 05:36:26;;;;;;;18.45;7.00;;;18.00;61.30;;;;;;4734131;30;20411;-86
2023/06/02 05:38:53;;;;;;;13.70;7.10;;;18.10;61.60;;;;;;4736973;30;20079;-86
2023/06/02 05:41:20;;;;;;;14.90;7.32;;;18.20;61.80;;;;;;4738845;30;20048;-86
2023/06/02 05:43:48;;;;;;;18.70;7.05;;;18.40;60.50;;;;;;4737205;30;20790;-86
2023/06/02 05:46:16;;;;;;;17.02;6.88;;;18.50;60.00;;;;;;4752356;30;20072;-87
2023/06/02 05:48:43;;;;;;;15.07;6.28;;;18.60;60.10;;;;;;4734721;30;20079;-86
2023/06/02 05:51:10;;;;;;;13.67;6.90;;;18.60;59.70;;;;;;4732397;30;20045;-87
2023/06/02 05:53:38;;;;;;;15.35;7.35;;;18.60;60.50;;;;;;4737249;30;20079;-86
2023/06/02 05:56:05;;;;;;;21.65;7.70;;;18.80;60.60;;;;;;4736612;30;20124;-86
2023/06/02 05:58:39;;;;;;;16.92;7.18;;;18.60;60.90;;;;;;4739841;30;20110;-86
2023/06/02 06:01:09;;;;;;;15.18;6.90;;;18.50;60.80;;;;;;4736887;30;20440;-86
2023/06/02 06:03:36;;;;;;;18.90;7.13;;;18.50;61.10;;;;;;4737037;30;20083;-85
2023/06/02 06:06:05;;;;;;;18.00;7.53;;;18.30;61.60;;;;;;4752002;30;20492;-86
2023/06/02 06:08:32;;;;;;;17.33;7.13;;;18.40;61.60;;;;;;4734948;30;20056;-86
2023/06/02 06:10:59;;;;;;;14.15;6.78;;;18.60;62.00;;;;;;4737066;30;20052;-86
2023/06/02 06:13:27;;;;;;;14.52;7.40;;;18.80;61.30;;;;;;4733967;30;20055;-87
2023/06/02 06:15:54;;;;;;;17.27;8.00;;;18.80;60.40;;;;;;4733753;30;20064;-87
2023/06/02 06:18:21;;;;;;;17.25;7.20;;;19.00;60.80;;;;;;4736927;30;20044;-86
2023/06/02 06:20:49;;;;;;;20.05;8.13;;;19.00;60.70;;;;;;4734276;30;20055;-86
2023/06/02 06:23:16;;;;;;;16.83;7.15;;;19.00;60.10;;;;;;4737936;30;20048;-86
2023/06/02 06:25:44;;;;;;;18.88;7.95;;;19.10;60.40;;;;;;4736287;30;20056;-87
2023/06/02 06:28:12;;;;;;;28.20;8.63;;;19.10;60.40;;;;;;4737046;30;20526;-86
2023/06/02 06:30:41;;;;;;;20.20;7.68;;;19.10;60.10;;;;;;4737599;30;20067;-86
2023/06/02 06:33:08;;;;;;;17.17;8.60;;;19.20;59.70;;;;;;4736805;30;20048;-87
2023/06/02 06:35:36;;;;;;;91.20;11.13;;;19.30;59.60;;;;;;4737093;30;20397;-86
2023/06/02 06:38:05;;;;;;;15.02;8.18;;;19.40;59.50;;;;;;4752418;30;20407;-87
2023/06/02 06:40:32;;;;;;;13.80;6.87;;;19.40;59.20;;;;;;4752895;30;20106;-87
2023/06/02 06:42:59;;;;;;;16.40;8.35;;;19.50;58.70;;;;;;4734205;30;20087;-87
2023/06/02 06:45:44;;;;;;;21.65;8.27;;;19.60;58.50;;;;;;4751589;30;20051;-86
2023/06/02 06:48:12;;;;;;;18.15;8.10;;;19.60;59.10;;;;;;4746953;30;20059;-87
2023/06/02 06:50:39;;;;;;;18.60;8.10;;;19.70;59.80;;;;;;4736233;30;20155;-86
2023/06/02 06:53:08;;;;;;;16.17;7.83;;;19.60;59.90;;;;;;4736463;30;20055;-87
2023/06/02 06:55:35;;;;;;;15.15;6.90;;;19.70;59.00;;;;;;4753696;30;20055;-87
2023/06/02 06:58:02;;;;;;;19.23;7.15;;;19.60;55.80;;;;;;4738911;30;20097;-87
2023/06/02 07:00:31;;;;;;;18.00;7.90;;;19.80;56.60;;;;;;4739329;30;20044;-86
2023/06/02 07:02:58;;;;;;;161.95;13.80;;;20.00;56.90;;;;;;4739239;30;20051;-86
2023/06/02 07:05:25;;;;;;;18.00;6.93;;;20.10;57.00;;;;;;4752314;30;20048;-87
2023/06/02 07:07:52;;;;;;;16.83;7.10;;;20.10;55.40;;;;;;4740724;30;20111;-87
2023/06/02 07:10:20;;;;;;;19.42;7.95;;;20.10;56.10;;;;;;4739484;30;20056;-87
2023/06/02 07:12:47;;;;;;;13.38;6.10;;;20.10;55.40;;;;;;4734619;30;20134;-87
2023/06/02 07:15:14;;;;;;;15.13;6.25;;;20.20;55.50;;;;;;4750698;30;20048;-87
2023/06/02 07:17:42;;;;;;;16.07;6.57;;;20.10;52.60;;;;;;4736226;30;20061;-86
2023/06/02 07:20:11;;;;;;;15.98;5.90;;;20.10;54.00;;;;;;4738362;30;20515;-86
2023/06/02 07:22:38;;;;;;;14.88;5.53;;;20.00;52.70;;;;;;4724350;30;20052;-86
2023/06/02 07:25:06;;;;;;;12.85;5.47;;;20.00;53.10;;;;;;4756608;30;20534;-87
2023/06/02 07:27:34;;;;;;;12.43;5.28;;;20.00;51.40;;;;;;4726611;30;20051;-87
2023/06/02 07:30:02;;;;;;;12.70;4.97;;;19.90;51.70;;;;;;4743505;30;20049;-87
2023/06/02 07:32:30;;;;;;;13.15;5.43;;;20.00;51.40;;;;;;4740891;30;20074;-87
2023/06/02 07:34:57;;;;;;;12.55;5.07;;;20.10;52.70;;;;;;4734086;30;20071;-86
2023/06/02 07:37:24;;;;;;;15.35;5.57;;;20.10;51.80;;;;;;4736619;30;20056;-87
2023/06/02 07:39:51;;;;;;;14.27;5.22;;;20.20;52.30;;;;;;4738712;30;20052;-86
2023/06/02 07:42:21;;;;;;;11.97;5.67;;;20.40;52.40;;;;;;4740319;30;20048;-88
2023/06/02 07:44:48;;;;;;;12.50;5.30;;;20.50;52.30;;;;;;4740452;30;20044;-87
2023/06/02 07:47:15;;;;;;;12.90;5.82;;;20.20;52.90;;;;;;4739812;30;20067;-88
2023/06/02 07:49:43;;;;;;;15.25;5.93;;;20.30;53.70;;;;;;4737257;30;20060;-88
2023/06/02 07:52:10;;;;;;;17.48;5.82;;;20.30;54.50;;;;;;4740217;30;20052;-88
2023/06/02 07:54:38;;;;;;;178.73;13.37;;;20.60;53.30;;;;;;4739961;30;20393;-88
2023/06/02 07:57:05;;;;;;;23.42;5.82;;;20.70;55.80;;;;;;4740244;30;20060;-87
2023/06/02 07:59:32;;;;;;;14.65;5.93;;;20.80;53.40;;;;;;4739942;30;20419;-88
2023/06/02 08:01:59;;;;;;;13.60;6.50;;;20.80;53.60;;;;;;4740207;30;20140;-89
2023/06/02 08:04:27;;;;;;;16.02;5.93;;;20.60;53.00;;;;;;4739342;30;20135;-88
2023/06/02 08:06:55;;;;;;;16.30;5.77;;;20.60;53.50;;;;;;4739633;30;20059;-88
2023/06/02 08:09:23;;;;;;;13.95;5.90;;;20.60;54.40;;;;;;4740046;30;20048;-88
2023/06/02 08:11:51;;;;;;;14.52;5.78;;;20.70;53.90;;;;;;4754720;30;20052;-88
2023/06/02 08:14:18;;;;;;;13.75;4.80;;;21.00;55.30;;;;;;4741979;30;20063;-87
2023/06/02 08:16:46;;;;;;;10.32;4.05;;;21.10;52.80;;;;;;4739194;30;20141;-87
2023/06/02 08:19:25;;;;;;;12.33;4.13;;;21.20;52.20;;;;;;4740961;30;20056;-88
2023/06/02 08:21:53;;;;;;;10.68;4.22;;;21.10;52.20;;;;;;4748706;30;20542;-88
2023/06/02 08:24:24;;;;;;;16.15;4.95;;;20.80;50.40;;;;;;4739778;30;20072;-88
2023/06/02 08:26:54;;;;;;;10.88;4.05;;;20.70;52.10;;;;;;4739693;30;20059;-88
2023/06/02 08:29:22;;;;;;;14.00;4.57;;;21.00;53.80;;;;;;4736668;30;20057;-88
2023/06/02 08:31:50;;;;;;;12.57;4.43;;;21.00;51.60;;;;;;4742957;30;20060;-88
2023/06/02 08:34:20;;;;;;;12.63;4.22;;;21.10;51.50;;;;;;4739018;30;20074;-88
2023/06/02 08:36:56;;;;;;;11.80;4.00;;;20.90;51.10;;;;;;4739143;30;20528;-88
2023/06/02 08:39:25;;;;;;;14.05;3.95;;;20.60;52.10;;;;;;4753783;30;20543;-88
2023/06/02 08:41:55;;;;;;;13.48;4.90;;;20.20;52.20;;;;;;4753530;30;20076;-87
2023/06/02 08:44:23;;;;;;;11.00;3.77;;;20.50;52.70;;;;;;4739102;30;20048;-88
2023/06/02 08:46:51;;;;;;;11.50;3.60;;;21.00;51.90;;;;;;4739131;30;20048;-88
2023/06/02 08:49:21;;;;;;;10.25;3.70;;;21.10;50.10;;;;;;4738699;30;20080;-87
2023/06/02 08:51:54;;;;;;;13.45;3.85;;;21.10;50.00;;;;;;4725050;30;20487;-88
2023/06/02 08:54:22;;;;;;;10.05;3.85;;;20.80;51.20;;;;;;4739084;30;20129;-88
2023/06/02 08:56:51;;;;;;;11.60;4.00;;;20.50;51.30;;;;;;4740046;30;20056;-88
2023/06/02 08:59:20;;;;;;;10.50;3.95;;;20.60;51.90;;;;;;4739078;30;20083;-88
2023/06/02 09:01:47;;;;;;;11.90;3.90;;;20.70;50.50;;;;;;4738944;30;20044;-89
2023/06/02 09:04:16;;;;;;;10.50;3.90;;;21.10;51.70;;;;;;4738858;30;20056;-89
2023/06/02 09:06:49;;;;;;;13.43;4.57;;;21.10;49.60;;;;;;4752058;30;20059;-88
2023/06/02 09:09:16;;;;;;;15.57;4.30;;;21.10;51.40;;;;;;4746689;30;20056;-88
2023/06/02 09:11:59;;;;;;;11.25;3.75;;;21.20;50.10;;;;;;4749665;30;20110;-86
2023/06/02 09:14:26;;;;;;;10.55;3.92;;;21.20;50.80;;;;;;4743480;30;20094;-88
2023/06/02 09:16:53;;;;;;;12.43;3.70;;;21.10;51.10;;;;;;4737076;30;20064;-88
2023/06/02 09:19:21;;;;;;;14.32;4.38;;;21.50;51.70;;;;;;4738070;30;20503;-88
2023/06/02 09:21:48;;;;;;;11.97;4.10;;;21.60;48.70;;;;;;4729612;30;20123;-87
2023/06/02 09:24:31;;;;;;;11.43;3.97;;;21.80;47.90;;;;;;4738455;30;20051;-88
2023/06/02 09:26:58;;;;;;;14.85;4.03;;;22.00;48.20;;;;;;4738080;30;20072;-87
2023/06/02 09:29:26;;;;;;;9.98;3.47;;;22.30;47.80;;;;;;4738621;30;20086;-88
2023/06/02 09:31:59;;;;;;;12.40;4.13;;;22.60;49.90;;;;;;4752786;30;20075;-88
2023/06/02 09:34:35;;;;;;;12.63;3.67;;;22.30;48.70;;;;;;4736000;30;20531;-88
2023/06/02 09:37:11;;;;;;;13.50;3.90;;;21.80;49.20;;;;;;4738424;30;20060;-89
2023/06/02 09:39:45;;;;;;;10.05;4.13;;;21.40;50.20;;;;;;4738254;30;20511;-89
2023/06/02 09:42:14;;;;;;;11.27;4.28;;;21.10;49.90;;;;;;4735496;30;20052;-87
2023/06/02 09:45:05;;;;;;;11.43;4.13;;;21.10;48.80;;;;;;4747673;30;20068;-89
2023/06/02 09:47:40;;;;;;;11.77;3.80;;;21.40;49.50;;;;;;4738444;30;20048;-89
2023/06/02 09:50:29;;;;;;;13.00;3.53;;;21.80;49.50;;;;;;4735827;30;20052;-88
2023/06/02 09:53:08;;;;;;;13.65;3.80;;;21.90;48.80;;;;;;4733954;30;20059;-88
2023/06/02 09:55:36;;;;;;;11.40;3.78;;;21.60;49.60;;;;;;4733574;30;20048;-87
2023/06/02 09:58:05;;;;;;;9.35;4.25;;;21.60;49.90;;;;;;4738048;30;20052;-88
2023/06/02 10:00:35;;;;;;;12.20;3.87;;;21.90;50.00;;;;;;4738628;30;20115;-89
2023/06/02 10:03:04;;;;;;;13.80;4.22;;;22.20;49.60;;;;;;4731848;30;20118;-88
2023/06/02 10:05:33;;;;;;;13.50;4.32;;;22.00;50.00;;;;;;4750503;30;20056;-87
2023/06/02 10:08:09;;;;;;;14.77;4.70;;;21.70;51.50;;;;;;4737878;30;20053;-87
2023/06/02 10:10:45;;;;;;;12.32;4.40;;;21.60;51.40;;;;;;4737917;30;20053;-86
2023/06/02 10:13:34;;;;;;;11.33;4.17;;;21.50;51.30;;;;;;4738006;30;20056;-87
2023/06/02 10:16:26;;;;;;;41.30;6.15;;;21.40;51.60;;;;;;4739940;30;20047;-84
2023/06/02 10:19:22;;;;;;;13.82;4.50;;;21.30;51.20;;;;;;4729270;30;20056;-83
2023/06/02 10:22:10;;;;;;;11.23;4.40;;;21.20;51.40;;;;;;4744663;30;20083;-84
2023/06/02 10:24:40;;;;;;;11.93;4.63;;;21.30;52.00;;;;;;4737278;30;20290;-85
2023/06/02 10:27:36;;;;;;;29.23;5.40;;;21.30;51.00;;;;;;4737685;30;20048;-84
2023/06/02 10:30:04;;;;;;;14.23;4.95;;;21.40;50.40;;;;;;4738744;30;20075;-86
2023/06/02 10:32:43;;;;;;;12.77;4.80;;;21.40;52.90;;;;;;4755553;30;20110;-88
2023/06/02 10:35:10;;;;;;;11.80;4.78;;;21.30;52.30;;;;;;4738070;30;20139;-88
2023/06/02 10:37:39;;;;;;;12.30;4.82;;;21.20;52.50;;;;;;4755531;30;20056;-89
2023/06/02 10:40:10;;;;;;;12.37;4.83;;;21.10;52.80;;;;;;4755589;30;20048;-88
2023/06/02 10:42:58;;;;;;;14.50;5.28;;;21.00;53.00;;;;;;4740186;30;20056;-89
2023/06/02 10:45:28;;;;;;;11.20;5.15;;;21.00;52.90;;;;;;4740765;30;20442;-88
2023/06/02 10:47:55;;;;;;;12.20;5.07;;;20.90;54.20;;;;;;4755312;30;20071;-88
2023/06/02 10:50:22;;;;;;;23.85;5.72;;;20.80;52.60;;;;;;4755199;30;20060;-88
2023/06/02 10:52:58;;;;;;;15.83;4.97;;;20.60;53.10;;;;;;4740971;30;20048;-88
2023/06/02 10:55:30;;;;;;;15.70;5.15;;;20.60;53.90;;;;;;4738223;30;20063;-88
2023/06/02 10:58:03;;;;;;;18.92;5.38;;;20.50;53.60;;;;;;4746599;30;20057;-87
2023/06/02 11:00:35;;;;;;;13.63;5.30;;;20.60;53.70;;;;;;4755658;30;20047;-88
2023/06/02 11:03:16;;;;;;;12.10;4.68;;;20.50;53.30;;;;;;4751781;30;20056;-88
2023/06/02 11:05:45;;;;;;;14.57;5.37;;;20.60;54.90;;;;;;4739045;30;20069;-88
2023/06/02 11:08:18;;;;;;;14.35;5.25;;;20.80;53.90;;;;;;4755840;30;20047;-89
2023/06/02 11:10:48;;;;;;;12.98;5.45;;;20.80;53.80;;;;;;4755359;30;20120;-90
2023/06/02 11:17:30;;;;;;;14.25;5.57;;;20.70;53.20;;;;;;4752821;30;20055;-88
2023/06/02 11:19:58;;;;;;;13.90;5.23;;;20.60;54.20;;;;;;4743472;30;20056;-90
2023/06/02 11:22:27;;;;;;;18.05;6.25;;;20.70;54.70;;;;;;4740746;30;20102;-90
2023/06/02 11:24:54;;;;;;;18.45;8.02;;;20.50;54.00;;;;;;4740507;30;20140;-89
2023/06/02 11:27:42;;;;;;;13.35;6.90;;;20.40;55.40;;;;;;4740363;30;20040;-91
2023/06/02 11:30:15;;;;;;;15.25;6.43;;;20.50;53.40;;;;;;4755371;30;20059;-90
2023/06/02 11:32:47;;;;;;;17.43;7.50;;;20.50;54.10;;;;;;4740622;30;20519;-93
2023/06/02 11:35:25;;;;;;;14.20;6.60;;;20.60;53.90;;;;;;4727409;30;20048;-93
2023/06/02 11:38:04;;;;;;;18.27;6.65;;;20.60;54.50;;;;;;4740424;30;20052;-93
2023/06/02 11:40:34;;;;;;;14.23;6.38;;;20.90;54.00;;;;;;4740388;30;20055;-93
2023/06/02 11:43:03;;;;;;;13.90;6.50;;;20.70;53.80;;;;;;4740483;30;20071;-95
2023/06/02 11:45:30;;;;;;;13.23;5.40;;;20.70;54.50;;;;;;4741020;30;20078;-93
2023/06/02 11:48:02;;;;;;;15.20;5.45;;;20.60;54.70;;;;;;4740407;30;20048;-93
2023/06/02 11:50:33;;;;;;;16.33;4.65;;;20.70;55.40;;;;;;4740634;30;20088;-94
2023/06/02 11:53:01;;;;;;;14.80;4.53;;;21.00;53.40;;;;;;4725884;30;20056;-94
2023/06/02 11:55:32;;;;;;;13.55;5.30;;;21.10;52.30;;;;;;4741246;30;20087;-94
2023/06/02 11:58:23;;;;;;;15.33;5.87;;;21.20;51.80;;;;;;4754786;30;20052;-96
2023/06/02 12:00:52;;;;;;;13.75;4.78;;;21.10;52.60;;;;;;4741130;30;20088;-95
2023/06/02 12:03:19;;;;;;;13.70;4.82;;;20.90;52.00;;;;;;4740374;30;20052;-93
2023/06/02 12:05:49;;;;;;;14.10;5.18;;;20.80;52.70;;;;;;4740787;30;20530;-94
2023/06/02 12:08:22;;;;;;;14.30;4.90;;;20.90;51.90;;;;;;4756821;30;20053;-94
2023/06/02 12:10:50;;;;;;;13.97;4.50;;;21.00;52.50;;;;;;4740682;30;20048;-94
2023/06/02 12:13:25;;;;;;;11.18;4.57;;;21.00;51.80;;;;;;4741724;30;20052;-95
2023/06/02 12:16:24;;;;;;;9.70;4.25;;;20.90;51.90;;;;;;4741008;30;20431;-94
2023/06/02 12:18:53;;;;;;;10.88;3.70;;;20.80;52.70;;;;;;4740095;30;20071;-92
2023/06/02 12:21:26;;;;;;;8.80;3.42;;;21.00;52.90;;;;;;4740155;30;20499;-94
2023/06/02 12:23:58;;;;;;;12.17;3.70;;;21.00;52.60;;;;;;4725664;30;20121;-93
2023/06/02 12:26:25;;;;;;;12.32;3.70;;;20.90;51.10;;;;;;4725492;30;20058;-91
2023/06/02 12:28:53;;;;;;;13.98;3.45;;;21.10;51.70;;;;;;4754524;30;20083;-93
2023/06/02 12:31:20;;;;;;;11.77;3.30;;;21.30;52.40;;;;;;4739539;30;20470;-90
2023/06/02 12:33:48;;;;;;;13.15;3.42;;;21.50;50.90;;;;;;4739279;30;20048;-90
2023/06/02 12:36:16;;;;;;;9.40;3.30;;;21.60;49.40;;;;;;4754488;30;20082;-92
2023/06/02 12:38:43;;;;;;;11.38;2.92;;;21.80;49.40;;;;;;4753982;30;20067;-91
2023/06/02 12:45:52;;;;;;;11.60;3.50;;;21.90;47.40;;;;;;4737854;30;20109;-93
2023/06/02 12:48:19;;;;;;;10.07;3.33;;;21.60;47.40;;;;;;4736150;30;20045;-91
2023/06/02 12:50:46;;;;;;;11.03;3.57;;;21.60;51.10;;;;;;4736363;30;20118;-91
2023/06/02 12:53:15;;;;;;;12.55;3.83;;;21.70;48.50;;;;;;4735686;30;20530;-91
2023/06/02 12:55:42;;;;;;;10.55;3.13;;;21.80;48.40;;;;;;4736657;30;20085;-90
2023/06/02 12:58:10;;;;;;;9.30;3.35;;;21.70;47.80;;;;;;4736518;30;20147;-93
2023/06/02 13:00:39;;;;;;;10.63;3.80;;;21.50;48.50;;;;;;4736909;30;20057;-91